Station: Roseworthy

  Atmospheric Gas Attenuation - ITU Rec 676-11   --------------- db/100km ---------------
Date Time Temp RH % AH g/m3 Dew Point Wind Direction Speed kph Gust kph Barometer mB Rainfall Since 9am 24GHz 47GHz 76GHz 122GHz 134GHz 241GHz
03 09:40 19.5 51 8.56 9.1 11 13 1021 0 19.2 24.5 37.2 97.6 91.6 315.3
03 09:30 18.3 54 8.44 8.8 7 15 1021.2 0 19.0 24.7 37.4 97.9 91.5 314.9
03 09:20 17.8 55 8.35 8.6 7 9 1021.1 0 18.9 24.7 37.2 97.6 91.0 312.9
03 09:10 17.8 57 8.65 9.2 6 7 1021.3 0 19.5 25.1 38.4 100.6 94.7 326.1
03 09:00 17.7 57 8.6 9.1 13 20 1021.3 0 19.4 25.1 38.2 100.2 94.2 324.3
03 08:50 17.3 58 8.54 9 15 20 1021.2 0 19.3 25.1 38.2 100.1 94.0 323.3
03 08:40 17.3 59 8.69 9.2 15 17 1021.2 0 19.6 25.3 38.8 101.7 95.9 329.9
03 08:30 16.6 61 8.62 9.1 13 19 1021.1 0 19.5 25.4 38.8 101.8 95.8 329.7
03 08:20 16.2 63 8.69 9.2 9 13 1021.3 0 19.7 25.6 39.3 103.1 97.2 334.6
03 08:10 15.5 65 8.59 9 9 11 1021.3 0 19.5 25.7 39.3 102.9 96.8 333.0
03 08:00 15.1 66 8.51 8.8 11 15 1021.1 0 19.3 25.7 39.1 102.6 96.2 331.0
03 07:50 14.9 68 8.67 9.1 11 13 1021 0 19.7 26.0 39.9 104.5 98.6 339.1
03 07:40 14.5 70 8.71 9.1 9 11 1021 0 19.8 26.2 40.2 105.5 99.6 342.7
03 07:30 14.4 71 8.78 9.2 9 11 1020.8 0 19.9 26.3 40.6 106.4 100.6 346.3
03 07:20 13.8 75 8.94 9.5 7 9 1020.8 0 20.3 26.7 41.5 108.9 103.6 356.5
03 07:10 13.2 79 9.07 9.6 6 7 1020.6 0 20.6 27.1 42.4 111.2 106.1 365.3
03 07:00 12 84 8.95 9.4 0 6 1020.4 0 20.4 27.3 42.5 111.5 106.1 365.1
03 06:50 10.4 89 8.58 8.7 4 6 1020.3 0 19.7 27.1 41.8 109.6 103.2 354.6
03 06:40 9.7 91 8.39 8.3 7 7 1020.2 0 19.3 27.0 41.4 108.5 101.4 348.5
03 06:30 8.7 93 8.05 7.6 9 11 1020.3 0 18.6 26.8 40.4 106.0 98.0 336.3
03 06:20 7.8 94 7.67 6.9 7 9 1020.3 0 17.9 26.4 39.3 102.9 93.8 321.6
03 06:10 6.9 94 7.24 6 9 9 1020.3 0 17.0 25.9 37.9 99.2 88.9 304.3
03 06:00 6.2 91 6.7 4.8 9 9 1020.2 0 15.8 25.2 36.0 94.1 82.3 280.8
03 05:50 6.4 92 6.86 5.2 9 11 1020.1 0 16.2 25.4 36.5 95.6 84.2 287.8
03 05:40 6.5 93 6.98 5.5 7 9 1020 0 16.4 25.6 37.0 96.8 85.8 293.2
03 05:30 6.5 92 6.9 5.3 9 11 1020 0 16.3 25.5 36.7 95.9 84.7 289.3
03 05:20 6.6 92 6.95 5.4 11 11 1019.9 0 16.4 25.5 36.8 96.3 85.2 291.3
03 05:00 6.8 92 7.04 5.6 11 13 1019.8 0 16.6 25.6 37.1 97.1 86.2 294.9
03 04:50 7 92 7.13 5.8 9 11 1019.7 0 16.7 25.7 37.4 97.8 87.2 298.4
03 04:40 6.8 92 7.04 5.6 11 11 1019.7 0 16.6 25.6 37.1 97.1 86.2 294.8
03 04:30 7 91 7.05 5.6 9 11 1019.7 0 16.6 25.6 37.0 96.9 86.1 294.6
03 04:20 7.2 92 7.23 6 9 11 1019.7 0 16.9 25.8 37.7 98.7 88.4 302.5
03 04:10 7.1 91 7.1 5.7 7 9 1019.6 0 16.7 25.6 37.2 97.3 86.7 296.6
03 04:00 7.2 91 7.15 5.8 6 9 1019.6 0 16.8 25.7 37.4 97.8 87.3 298.6
03 03:50 7.2 90 7.07 5.7 6 7 1019.5 0 16.6 25.5 37.0 96.9 86.2 294.7
03 03:40 7.3 90 7.11 5.8 7 7 1019.5 0 16.7 25.6 37.1 97.2 86.6 296.3
03 03:30 7.5 90 7.21 6 7 9 1019.4 0 16.9 25.7 37.5 98.0 87.8 300.3
03 03:20 7.3 91 7.19 5.9 7 7 1019.7 0 16.9 25.7 37.5 98.1 87.7 300.2
03 03:10 7.3 90 7.11 5.8 9 9 1019.8 0 16.7 25.6 37.2 97.2 86.6 296.3
03 03:00 7.4 90 7.16 5.9 7 9 1019.9 0 16.8 25.6 37.3 97.7 87.2 298.4
03 02:50 7.5 89 7.13 5.8 7 7 1020 0 16.7 25.6 37.2 97.2 86.7 296.6
03 02:40 7.9 88 7.23 6 6 6 1020 0 16.9 25.6 37.4 97.8 87.6 299.9
03 02:30 7.8 88 7.18 5.9 9 13 1020.1 0 16.8 25.6 37.2 97.4 87.1 297.9
03 02:20 8 89 7.36 6.3 11 13 1020 0 17.2 25.8 37.9 99.1 89.3 305.7
03 02:10 7.8 89 7.27 6.1 11 13 1020.1 0 17.0 25.7 37.6 98.4 88.3 302.2
03 02:00 7.8 87 7.1 5.8 9 11 1020.1 0 16.6 25.4 36.9 96.5 86.0 294.1
03 01:50 8.2 87 7.29 6.2 9 11 1020.1 0 17.0 25.6 37.5 98.1 88.1 301.6
03 01:40 8.3 87 7.34 6.3 9 9 1020.1 0 17.1 25.7 37.7 98.6 88.7 303.6
03 01:30 8.1 86 7.16 5.9 6 9 1020.1 0 16.8 25.4 37.0 96.8 86.4 295.8
03 01:20 8.1 85 7.08 5.7 9 9 1020.1 0 16.6 25.3 36.7 95.9 85.4 292.0
03 01:10 8.7 84 7.27 6.2 7 7 1020.3 0 17.0 25.5 37.2 97.3 87.3 298.8
03 01:00 9.3 84 7.55 6.7 0 0 1020.4 0 17.5 25.8 38.1 99.6 90.4 309.8
03 00:50 9.4 78 7.06 5.8 0 0 1020.3 0 16.5 24.9 36.0 94.2 83.7 286.3
03 00:40 10.6 76 7.42 6.6 0 0 1020.4 0 17.2 25.2 36.9 96.6 87.2 298.6
03 00:30 11.6 72 7.48 6.7 7 11 1020.3 0 17.3 25.0 36.7 96.0 86.8 297.6
03 00:20 12.4 71 7.76 7.3 9 9 1020.3 0 17.9 25.2 37.4 98.0 89.6 307.4
03 00:10 12.5 71 7.81 7.4 9 11 1020.4 0 18.0 25.3 37.6 98.4 90.1 309.3
03 00:00 12.8 70 7.84 7.5 11 13 1020.5 0 18.0 25.2 37.6 98.4 90.2 309.5
02 23:50 12.5 71 7.81 7.4 9 11 1020.4 0 18.0 25.3 37.6 98.4 90.1 309.3
02 23:40 12.2 71 7.66 7.1 7 9 1020.4 0 17.6 25.1 37.1 97.2 88.5 303.6
02 23:30 12.5 70 7.7 7.2 7 11 1020.3 0 17.7 25.1 37.1 97.2 88.7 304.2
02 23:20 12.8 69 7.73 7.3 11 11 1020 0 17.8 25.0 37.1 97.2 88.7 304.4
02 23:10 13 68 7.71 7.2 11 11 1020.1 0 17.7 24.9 36.9 96.7 88.2 302.7
02 23:00 13 68 7.71 7.2 9 13 1020.1 0 17.7 24.9 36.9 96.7 88.2 302.7
02 22:50 13.3 67 7.74 7.3 11 11 1020.1 0 17.8 24.9 36.9 96.7 88.3 302.9
02 22:40 13.8 65 7.74 7.3 13 15 1020.1 0 17.7 24.8 36.7 96.1 87.7 301.0
02 22:30 14 64 7.72 7.3 13 19 1020 0 17.7 24.7 36.5 95.6 87.2 299.4
02 22:20 14.4 62 7.66 7.2 13 13 1019.9 0 17.6 24.5 36.1 94.5 86.0 295.2
02 22:10 14.6 62 7.76 7.4 13 17 1019.7 0 17.8 24.6 36.4 95.3 87.1 298.8
02 22:00 14.9 61 7.77 7.5 17 22 1019.5 0 17.8 24.5 36.3 95.0 86.8 298.1
02 21:50 15.2 62 8.05 8 17 24 1019.4 0 18.3 24.9 37.2 97.5 90.1 309.4
02 21:40 15 62 7.95 7.8 11 13 1019.2 0 18.1 24.7 36.9 96.7 89.0 305.6
02 21:30 15.6 62 8.25 8.4 20 26 1019.1 0 18.8 25.0 37.8 99.0 92.1 316.7
02 21:20 15.8 63 8.48 8.8 20 28 1018.8 0 19.2 25.3 38.6 101.2 94.8 326.1
02 21:10 15.8 64 8.61 9 19 22 1018.6 0 19.5 25.5 39.1 102.5 96.5 331.9
02 21:00 16 63 8.58 9 20 30 1018.5 0 19.4 25.4 38.9 101.9 95.8 329.7
02 20:50 16.2 61 8.41 8.7 17 24 1018.4 0 19.1 25.1 38.1 99.9 93.4 321.2
02 20:40 16.5 60 8.42 8.7 19 24 1018.1 0 19.1 25.0 38.0 99.6 93.1 320.4
02 20:30 16.7 60 8.53 8.9 24 33 1017.9 0 19.3 25.1 38.3 100.4 94.3 324.4
02 20:20 16.9 58 8.34 8.6 28 30 1017.9 0 18.9 24.8 37.5 98.2 91.6 315.2
02 20:10 17.3 57 8.4 8.7 26 32 1017.7 0 19.0 24.8 37.5 98.3 91.9 316.2
02 20:00 17.5 56 8.35 8.6 30 41 1017.7 0 18.9 24.6 37.2 97.6 91.1 313.2
02 19:50 18 55 8.45 8.8 30 41 1017.5 0 19.1 24.6 37.4 98.0 91.7 315.6
02 19:40 18.2 56 8.7 9.3 28 32 1017.3 0 19.6 25.0 38.2 100.2 94.6 325.6
02 19:30 18.7 53 8.48 8.9 30 43 1017.2 0 19.1 24.5 37.2 97.4 91.3 314.0
02 19:20 19 53 8.64 9.2 30 37 1017.1 0 19.4 24.6 37.6 98.6 92.9 319.7
02 19:10 19.6 51 8.61 9.2 22 28 1017.1 0 19.3 24.4 37.2 97.6 91.8 316.1
02 19:00 19.8 51 8.71 9.4 32 41 1016.9 0 19.5 24.5 37.5 98.3 92.8 319.5
02 18:50 19.7 51 8.66 9.3 33 39 1016.7 0 19.4 24.5 37.3 97.9 92.3 317.7
02 18:40 19.9 48 8.25 8.6 33 41 1016.6 0 18.6 23.8 35.7 93.6 87.1 299.5
02 18:30 20.1 47 8.17 8.4 33 44 1016.5 0 18.4 23.6 35.4 92.6 85.9 295.4
02 18:20 20.1 48 8.34 8.8 35 41 1016.4 0 18.7 23.9 36.0 94.3 87.9 302.5
02 18:10 20.6 46 8.23 8.6 35 39 1016.2 0 18.5 23.6 35.3 92.6 86.0 296.0
02 18:00 21 47 8.61 9.3 33 44 1016 0 19.3 24.0 36.5 95.8 90.1 310.3
02 17:50 20.8 45 8.15 8.4 37 43 1016 0 18.3 23.4 35.0 91.6 84.8 291.9
02 17:40 21.1 45 8.29 8.7 35 41 1016 0 18.6 23.5 35.3 92.6 86.2 296.6
02 17:30 21.5 43 8.11 8.4 33 43 1015.8 0 18.2 23.2 34.5 90.4 83.6 287.7
02 17:20 21.8 45 8.63 9.3 32 33 1015.6 0 19.3 23.8 36.2 95.0 89.4 308.0
02 17:10 21.3 46 8.57 9.2 32 37 1015.6 0 19.2 23.9 36.2 95.0 89.3 307.4
02 17:00 20.2 48 8.39 8.8 32 41 1015.6 0 18.8 23.9 36.1 94.6 88.3 304.0

Last Refresh: 03-Dec-2021 09:45:57

Bureau of Meteorology